createdAt,value
2023-02-05T00:00:11.626Z,77.9
2023-02-05T00:01:15.273Z,77.8
2023-02-05T00:02:18.600Z,77.8
2023-02-05T00:03:22.834Z,77.8
2023-02-05T00:04:26.987Z,77.8
2023-02-05T00:05:29.978Z,77.7
2023-02-05T00:06:33.719Z,77.7
2023-02-05T00:07:36.815Z,77.9
2023-02-05T00:08:40.253Z,77.8
2023-02-05T00:09:43.777Z,77.8
2023-02-05T00:10:47.159Z,77.8
2023-02-05T00:11:50.221Z,77.9
2023-02-05T00:12:53.934Z,77.8
2023-02-05T00:13:56.767Z,77.8
2023-02-05T00:15:00.644Z,77.8
2023-02-05T00:16:04.042Z,77.8
2023-02-05T00:17:07.346Z,77.8
2023-02-05T00:18:10.754Z,78
2023-02-05T00:19:13.612Z,78.3
2023-02-05T00:20:17.055Z,78.4
2023-02-05T00:21:21.044Z,78.4
2023-02-05T00:22:23.898Z,78.5
2023-02-05T00:23:27.273Z,78.1
2023-02-05T00:24:30.866Z,78
2023-02-05T00:25:35.736Z,77.9
2023-02-05T00:26:39.600Z,77.8
2023-02-05T00:27:43.860Z,77.7
2023-02-05T00:28:47.386Z,77.8
2023-02-05T00:29:51.267Z,77.9
2023-02-05T00:30:55.747Z,77.9
2023-02-05T00:31:59.313Z,77.9
2023-02-05T00:33:02.489Z,78
2023-02-05T00:34:05.310Z,78.1
2023-02-05T00:35:08.085Z,78.1
2023-02-05T00:36:13.948Z,78.2
2023-02-05T00:37:17.325Z,78.5
2023-02-05T00:38:21.003Z,78.4
2023-02-05T00:39:24.344Z,78.4
2023-02-05T00:40:42.339Z,78.6
2023-02-05T00:41:45.469Z,78.7
2023-02-05T00:42:48.253Z,78.9
2023-02-05T00:43:51.517Z,78.9
2023-02-05T00:44:55.054Z,78.8
2023-02-05T00:45:59.343Z,78.9
2023-02-05T00:47:02.192Z,78.8
2023-02-05T00:48:05.560Z,78.7
2023-02-05T00:49:08.715Z,78.6
2023-02-05T00:50:12.122Z,78.5
2023-02-05T00:51:14.301Z,78.4
2023-02-05T00:52:17.902Z,78.3
2023-02-05T00:53:21.345Z,78.2
2023-02-05T00:54:24.323Z,78.1
2023-02-05T00:55:27.347Z,78
2023-02-05T00:56:31.161Z,78
2023-02-05T00:57:34.671Z,78.1
2023-02-05T00:58:38.672Z,78.2
2023-02-05T00:59:42.358Z,78.2
2023-02-05T01:00:45.812Z,78.3
2023-02-05T01:01:50.018Z,78.3
2023-02-05T01:02:53.701Z,78.2
2023-02-05T01:03:56.699Z,78.3
2023-02-05T01:04:59.849Z,78.1
2023-02-05T01:06:03.452Z,78.3
2023-02-05T01:07:06.918Z,78.3
2023-02-05T01:08:09.656Z,78.4
2023-02-05T01:09:12.361Z,78.4
2023-02-05T01:10:16.364Z,78.5
2023-02-05T01:11:18.903Z,78.5
2023-02-05T01:12:21.950Z,78.4
2023-02-05T01:13:25.378Z,78.4
2023-02-05T01:14:28.435Z,78.3
2023-02-05T01:15:32.012Z,78.4
2023-02-05T01:16:36.263Z,78.4
2023-02-05T01:17:40.302Z,78.6
2023-02-05T01:18:43.930Z,78.6
2023-02-05T01:19:46.730Z,78.7
2023-02-05T01:20:49.789Z,78.8
2023-02-05T01:21:53.299Z,78.8
2023-02-05T01:22:56.566Z,78.6
2023-02-05T01:23:59.715Z,78.5
2023-02-05T01:25:03.467Z,78.4
2023-02-05T01:26:06.271Z,78.3
2023-02-05T01:27:09.249Z,78.4
2023-02-05T01:28:11.927Z,78.6
2023-02-05T01:29:15.541Z,78.7
2023-02-05T01:30:18.729Z,78.8
2023-02-05T01:31:22.327Z,78.8
2023-02-05T01:32:26.521Z,78.8
2023-02-05T01:33:30.586Z,78.9
2023-02-05T01:34:33.677Z,78.9
2023-02-05T01:35:37.436Z,78.7
2023-02-05T01:36:40.416Z,78.7
2023-02-05T01:37:43.205Z,78.8
2023-02-05T01:38:46.114Z,78.7
2023-02-05T01:39:49.108Z,78.6
2023-02-05T01:40:52.370Z,78.7
2023-02-05T01:41:55.359Z,78.8
2023-02-05T01:42:58.686Z,78.9
2023-02-05T01:44:01.538Z,78.9
2023-02-05T01:45:04.533Z,78.9
2023-02-05T01:46:08.559Z,78.9
2023-02-05T01:47:11.626Z,79
2023-02-05T01:48:14.987Z,79
2023-02-05T01:49:18.813Z,79.1
2023-02-05T01:50:21.802Z,79.2
2023-02-05T01:51:25.211Z,79.2
2023-02-05T01:52:28.635Z,79.3
2023-02-05T01:53:32.027Z,79.3
2023-02-05T01:54:35.530Z,79.2
2023-02-05T01:55:39.263Z,79.3
2023-02-05T01:56:42.715Z,79.5
2023-02-05T01:57:45.856Z,79.5
2023-02-05T01:58:49.263Z,79.5
2023-02-05T01:59:52.450Z,79.4
2023-02-05T02:00:55.923Z,79.2
2023-02-05T02:01:59.538Z,79.1
2023-02-05T02:03:02.265Z,79
2023-02-05T02:04:05.681Z,79
2023-02-05T02:05:09.960Z,79
2023-02-05T02:06:12.946Z,79
2023-02-05T02:07:16.184Z,78.9
2023-02-05T02:08:18.918Z,78.9
2023-02-05T02:09:21.851Z,78.9
2023-02-05T02:10:25.843Z,78.7
2023-02-05T02:11:29.222Z,78.6
2023-02-05T02:12:32.370Z,78.6
2023-02-05T02:13:35.834Z,78.5
2023-02-05T02:14:39.722Z,78.4
2023-02-05T02:15:42.760Z,78.5
2023-02-05T02:16:45.618Z,78.4
2023-02-05T02:17:48.611Z,78.4
2023-02-05T02:18:52.330Z,78.4
2023-02-05T02:19:55.783Z,78.5
2023-02-05T02:20:59.868Z,78.5
2023-02-05T02:22:02.963Z,78.6
2023-02-05T02:23:06.320Z,78.7
2023-02-05T02:24:09.503Z,78.5
2023-02-05T02:25:12.636Z,78.2
2023-02-05T02:26:16.107Z,77.9
2023-02-05T02:27:20.234Z,77.8
2023-02-05T02:28:23.603Z,77.8
2023-02-05T02:29:26.592Z,77.7
2023-02-05T02:30:29.248Z,77.5
2023-02-05T02:31:32.490Z,77.4
2023-02-05T02:32:36.023Z,77.3
2023-02-05T02:33:38.895Z,77.3
2023-02-05T02:34:41.964Z,77.2
2023-02-05T02:35:45.591Z,77.1
2023-02-05T02:36:49.372Z,77.1
2023-02-05T02:37:52.425Z,77
2023-02-05T02:38:56.077Z,76.8
2023-02-05T02:39:59.435Z,76.7
2023-02-05T02:41:02.788Z,76.5
2023-02-05T02:42:06.120Z,76.7
2023-02-05T02:43:09.454Z,76.7
2023-02-05T02:44:12.462Z,76.6
2023-02-05T02:45:15.289Z,76.7
2023-02-05T02:46:18.240Z,76.6
2023-02-05T02:47:21.636Z,76.5
2023-02-05T02:48:24.724Z,76.3
2023-02-05T02:49:28.165Z,76.2
2023-02-05T02:50:31.883Z,75.9
2023-02-05T02:51:35.765Z,76
2023-02-05T02:52:39.638Z,76
2023-02-05T02:53:43.085Z,75.9
2023-02-05T02:54:46.159Z,75.9
2023-02-05T02:55:49.375Z,76
2023-02-05T02:56:52.545Z,76.2
2023-02-05T02:57:55.873Z,76.3
2023-02-05T02:58:58.665Z,76.3
2023-02-05T03:00:01.381Z,76.4
2023-02-05T03:01:04.631Z,76.5
2023-02-05T03:02:08.414Z,76.5
2023-02-05T03:03:11.463Z,76.8
2023-02-05T03:04:14.756Z,77
2023-02-05T03:05:17.734Z,76.9
2023-02-05T03:06:21.302Z,76.9
2023-02-05T03:07:24.186Z,76.7
2023-02-05T03:08:27.998Z,76.7
2023-02-05T03:09:31.140Z,76.8
2023-02-05T03:10:34.178Z,76.9
2023-02-05T03:11:37.812Z,76.8
2023-02-05T03:12:41.161Z,76.8
2023-02-05T03:13:44.534Z,76.7
2023-02-05T03:14:47.915Z,76.7
2023-02-05T03:15:51.655Z,76.6
2023-02-05T03:16:55.465Z,76.5
2023-02-05T03:17:58.917Z,76.4
2023-02-05T03:19:01.700Z,76.5
2023-02-05T03:20:04.749Z,76.5
2023-02-05T03:21:08.470Z,76.6
2023-02-05T03:22:11.902Z,76.4
2023-02-05T03:23:15.353Z,76
2023-02-05T03:24:19.477Z,76.1
2023-02-05T03:25:22.205Z,76.1
2023-02-05T03:26:25.885Z,76.1
2023-02-05T03:27:28.621Z,76.2
2023-02-05T03:28:32.004Z,76.5
2023-02-05T03:29:35.531Z,76.7
2023-02-05T03:30:38.252Z,76.8
2023-02-05T03:31:42.631Z,76.8
2023-02-05T03:32:46.126Z,76.7
2023-02-05T03:33:49.223Z,76.8
2023-02-05T03:34:52.009Z,76.9
2023-02-05T03:35:55.153Z,76.9
2023-02-05T03:36:58.236Z,76.8
2023-02-05T03:38:01.972Z,76.7
2023-02-05T03:39:05.963Z,76.5
2023-02-05T03:40:09.832Z,76.4
2023-02-05T03:41:13.189Z,76.5
2023-02-05T03:42:15.701Z,76.6
2023-02-05T03:43:17.933Z,76.6
2023-02-05T03:44:21.272Z,76.8
2023-02-05T03:45:24.638Z,76.7
2023-02-05T03:46:28.191Z,76.7
2023-02-05T03:47:31.282Z,76.7
2023-02-05T03:48:34.547Z,76.7
2023-02-05T03:49:37.905Z,76.9
2023-02-05T03:50:41.268Z,77.1
2023-02-05T03:51:44.625Z,77.2
2023-02-05T03:52:47.958Z,77.2
2023-02-05T03:53:51.096Z,77.1
2023-02-05T03:54:54.908Z,77
2023-02-05T03:55:59.044Z,77.1
2023-02-05T03:57:02.048Z,77.2
2023-02-05T03:58:05.391Z,77.1
2023-02-05T03:59:08.834Z,77
2023-02-05T04:00:12.265Z,76.9
2023-02-05T04:01:15.864Z,76.9
2023-02-05T04:02:18.643Z,76.9
2023-02-05T04:03:21.931Z,76.8
2023-02-05T04:04:25.645Z,76.6
2023-02-05T04:05:29.323Z,76.5
2023-02-05T04:06:32.546Z,76.4
2023-02-05T04:07:35.868Z,76.4
2023-02-05T04:08:39.066Z,76.5
2023-02-05T04:09:42.527Z,76.4
2023-02-05T04:10:46.346Z,76.4
2023-02-05T04:11:50.184Z,76.4
2023-02-05T04:12:53.572Z,76.2
2023-02-05T04:13:57.014Z,76.4
2023-02-05T04:15:00.665Z,76.5
2023-02-05T04:16:03.967Z,76.5
2023-02-05T04:17:07.498Z,76.5
2023-02-05T04:18:10.952Z,76.6
2023-02-05T04:19:14.109Z,76.5
2023-02-05T04:20:17.486Z,76.6
2023-02-05T04:21:21.211Z,76.6
2023-02-05T04:22:24.210Z,76.8
2023-02-05T04:23:26.791Z,76.7
2023-02-05T04:24:29.798Z,76.8
2023-02-05T04:25:34.305Z,76.9
2023-02-05T04:26:37.760Z,76.8
2023-02-05T04:27:42.000Z,76.6
2023-02-05T04:28:45.230Z,76.6
2023-02-05T04:29:48.883Z,76.7
2023-02-05T04:30:52.859Z,76.8
2023-02-05T04:31:56.565Z,77
2023-02-05T04:33:00.247Z,77
2023-02-05T04:34:03.903Z,76.8
2023-02-05T04:35:06.975Z,76.7
2023-02-05T04:36:10.113Z,76.5
2023-02-05T04:37:13.820Z,76.3
2023-02-05T04:38:16.337Z,76.3
2023-02-05T04:39:19.630Z,76.2
2023-02-05T04:40:22.586Z,76.2
2023-02-05T04:41:26.380Z,76.1
2023-02-05T04:42:29.641Z,76.2
2023-02-05T04:43:33.722Z,76.1
2023-02-05T04:44:37.081Z,76.1
2023-02-05T04:45:41.407Z,75.8
2023-02-05T04:46:44.637Z,75.9
2023-02-05T04:47:48.082Z,76
2023-02-05T04:48:51.530Z,76
2023-02-05T04:49:54.688Z,76.1
2023-02-05T04:50:57.837Z,75.9
2023-02-05T04:52:00.927Z,75.5
2023-02-05T04:53:03.933Z,75.7
2023-02-05T04:54:06.631Z,75.7
2023-02-05T04:55:10.262Z,75.7
2023-02-05T04:56:13.397Z,75.6
2023-02-05T04:57:16.675Z,75.6
2023-02-05T04:58:19.952Z,75.8
2023-02-05T04:59:23.739Z,75.8
2023-02-05T05:00:26.796Z,75.7
2023-02-05T05:01:30.573Z,75.7
2023-02-05T05:02:34.106Z,75.8
2023-02-05T05:03:37.441Z,76.1
2023-02-05T05:04:43.854Z,76.2
2023-02-05T05:05:47.197Z,76.2
2023-02-05T05:06:50.661Z,76.2
2023-02-05T05:07:54.406Z,76.2
2023-02-05T05:08:57.536Z,76.2
2023-02-05T05:10:00.602Z,76.2
2023-02-05T05:11:03.862Z,76.2
2023-02-05T05:12:06.903Z,76.2
2023-02-05T05:13:10.036Z,76
2023-02-05T05:14:13.776Z,76.1
2023-02-05T05:15:17.640Z,76.1
2023-02-05T05:16:20.487Z,76.1
2023-02-05T05:17:24.399Z,76.2
2023-02-05T05:18:27.111Z,76.3
2023-02-05T05:19:30.373Z,76.4
2023-02-05T05:20:33.913Z,76.5
2023-02-05T05:21:37.171Z,76.6
2023-02-05T05:22:39.895Z,76.5
2023-02-05T05:23:42.332Z,76.5
2023-02-05T05:24:45.390Z,76.7
2023-02-05T05:25:47.892Z,76.9
2023-02-05T05:26:50.606Z,76.8
2023-02-05T05:27:53.975Z,76.8
2023-02-05T05:28:57.410Z,76.9
2023-02-05T05:30:00.882Z,77
2023-02-05T05:31:05.038Z,77.2
2023-02-05T05:32:08.432Z,77.3
2023-02-05T05:33:11.253Z,77.5
2023-02-05T05:34:14.552Z,77.7
2023-02-05T05:35:18.260Z,77.8
2023-02-05T05:36:21.611Z,77.8
2023-02-05T05:37:24.682Z,77.8
2023-02-05T05:38:27.114Z,77.7
2023-02-05T05:39:30.806Z,77.6
2023-02-05T05:40:34.238Z,77.5
2023-02-05T05:41:37.656Z,77.5
2023-02-05T05:42:40.725Z,77.5
2023-02-05T05:43:43.766Z,77.4
2023-02-05T05:44:47.824Z,77.3
2023-02-05T05:45:50.903Z,77.1
2023-02-05T05:46:55.048Z,77.1
2023-02-05T05:47:57.941Z,77
2023-02-05T05:49:00.446Z,76.9
2023-02-05T05:50:03.329Z,77
2023-02-05T05:51:06.763Z,77
2023-02-05T05:52:09.200Z,77.1
2023-02-05T05:53:11.624Z,77.1
2023-02-05T05:54:14.766Z,77.1
2023-02-05T05:55:18.143Z,77.1
2023-02-05T05:56:21.947Z,77.1
2023-02-05T05:57:25.148Z,77.2
2023-02-05T05:58:27.577Z,77.1
2023-02-05T05:59:30.283Z,77
2023-02-05T06:00:32.970Z,77.1
2023-02-05T06:01:36.494Z,77.1
2023-02-05T06:02:40.494Z,77.1
2023-02-05T06:03:43.403Z,77
2023-02-05T06:04:47.389Z,77.2
2023-02-05T06:05:50.844Z,77.3
2023-02-05T06:06:53.921Z,77.3
2023-02-05T06:07:56.145Z,77.3
2023-02-05T06:08:59.490Z,77.3
2023-02-05T06:10:02.992Z,77.2
2023-02-05T06:11:06.715Z,77.3
2023-02-05T06:12:13.050Z,77.2
2023-02-05T06:13:15.910Z,77.3
2023-02-05T06:14:18.975Z,77.2
2023-02-05T06:15:22.299Z,77.1
2023-02-05T06:16:25.395Z,77.2
2023-02-05T06:17:28.373Z,77.2
2023-02-05T06:18:32.201Z,77.2
2023-02-05T06:19:35.132Z,77.1
2023-02-05T06:20:38.141Z,77
2023-02-05T06:21:41.416Z,77
2023-02-05T06:22:44.473Z,77
2023-02-05T06:23:47.575Z,76.9
2023-02-05T06:24:50.660Z,76.8
2023-02-05T06:25:53.367Z,76.8
2023-02-05T06:26:56.502Z,76.9
2023-02-05T06:28:00.485Z,76.8
2023-02-05T06:29:03.483Z,76.8
2023-02-05T06:30:06.744Z,76.8
2023-02-05T06:31:10.779Z,76.9
2023-02-05T06:32:14.013Z,76.6
2023-02-05T06:33:18.156Z,76.5
2023-02-05T06:34:28.209Z,76.2
2023-02-05T06:35:31.112Z,76.3
2023-02-05T06:36:35.399Z,76.1
2023-02-05T06:37:49.045Z,76.1
2023-02-05T06:38:52.497Z,76.3
2023-02-05T06:39:55.822Z,76.1
2023-02-05T06:40:58.802Z,76
2023-02-05T06:42:01.713Z,76
2023-02-05T06:43:05.013Z,76.1
2023-02-05T06:44:08.377Z,76.1
2023-02-05T06:45:10.959Z,75.8
2023-02-05T06:46:14.921Z,75.9
2023-02-05T06:47:18.098Z,75.9
2023-02-05T06:48:21.620Z,75.9
2023-02-05T06:49:24.696Z,75.9
2023-02-05T06:50:28.651Z,75.9
2023-02-05T06:51:32.398Z,76
2023-02-05T06:52:35.511Z,76
2023-02-05T06:53:38.865Z,75.9
2023-02-05T06:54:41.709Z,75.8
2023-02-05T06:55:44.848Z,75.9
2023-02-05T06:56:47.738Z,75.9
2023-02-05T06:57:51.363Z,75.9
2023-02-05T06:58:54.720Z,75.9
2023-02-05T06:59:58.135Z,76
2023-02-05T07:01:01.301Z,75.9
2023-02-05T07:02:04.646Z,75.9
2023-02-05T07:03:07.661Z,75.9
2023-02-05T07:04:11.445Z,76
2023-02-05T07:05:14.805Z,76.1
2023-02-05T07:06:18.591Z,76.1
2023-02-05T07:07:22.136Z,76.2
2023-02-05T07:08:25.539Z,76.2
2023-02-05T07:09:28.622Z,76.2
2023-02-05T07:10:32.109Z,76.1
2023-02-05T07:11:34.648Z,76.4
2023-02-05T07:12:37.494Z,76.3
2023-02-05T07:13:40.786Z,76.1
2023-02-05T07:14:43.954Z,76.1
2023-02-05T07:15:46.907Z,75.9
2023-02-05T07:16:50.769Z,75.8
2023-02-05T07:17:53.768Z,76
2023-02-05T07:18:57.509Z,75.6
2023-02-05T07:20:00.450Z,75.5
2023-02-05T07:21:03.840Z,75.5
2023-02-05T07:22:07.936Z,75.8
2023-02-05T07:23:10.594Z,75.5
2023-02-05T07:24:13.677Z,75.4
2023-02-05T07:25:16.463Z,75.3
2023-02-05T07:26:19.164Z,75.2
2023-02-05T07:27:22.568Z,75.4
2023-02-05T07:28:25.730Z,75.3
2023-02-05T07:29:28.339Z,75.4
2023-02-05T07:30:31.972Z,75.2
2023-02-05T07:31:35.573Z,75.4
2023-02-05T07:32:38.804Z,75.5
2023-02-05T07:33:42.232Z,75.5
2023-02-05T07:34:45.204Z,75.6
2023-02-05T07:35:48.560Z,75.5
2023-02-05T07:36:51.712Z,75.6
2023-02-05T07:37:55.729Z,75.7
2023-02-05T07:38:58.817Z,75.6
2023-02-05T07:40:02.248Z,75.7
2023-02-05T07:41:05.984Z,75.6
2023-02-05T07:42:09.430Z,75.6
2023-02-05T07:43:12.777Z,75.7
2023-02-05T07:44:16.266Z,75.5
2023-02-05T07:45:19.704Z,75.4
2023-02-05T07:46:23.809Z,75.5
2023-02-05T07:47:26.932Z,75.6
2023-02-05T07:48:30.692Z,75.6
2023-02-05T07:49:34.153Z,75.7
2023-02-05T07:50:37.498Z,75.9
2023-02-05T07:51:41.053Z,75.9
2023-02-05T07:52:44.313Z,76
2023-02-05T07:53:47.788Z,76
2023-02-05T07:54:51.136Z,75.9
2023-02-05T07:55:55.122Z,75.8
2023-02-05T07:56:57.545Z,75.9
2023-02-05T07:58:01.267Z,75.9
2023-02-05T07:59:04.901Z,75.9
2023-02-05T08:00:08.033Z,75.6
2023-02-05T08:01:11.306Z,75.8
2023-02-05T08:02:13.842Z,75.9
2023-02-05T08:03:16.885Z,76
2023-02-05T08:04:20.204Z,75.6
2023-02-05T08:05:23.355Z,75.4
2023-02-05T08:06:26.483Z,75.4
2023-02-05T08:07:29.571Z,75.3
2023-02-05T08:08:32.732Z,75.7
2023-02-05T08:09:36.262Z,75.7
2023-02-05T08:10:39.942Z,75.7
2023-02-05T08:11:43.210Z,75.5
2023-02-05T08:12:46.563Z,75.5
2023-02-05T08:13:50.017Z,75.5
2023-02-05T08:14:53.097Z,75.3
2023-02-05T08:15:56.266Z,75.1
2023-02-05T08:17:00.129Z,75.1
2023-02-05T08:18:03.940Z,75
2023-02-05T08:19:06.751Z,75
2023-02-05T08:20:09.781Z,75
2023-02-05T08:21:12.844Z,74.8
2023-02-05T08:22:16.252Z,75.1
2023-02-05T08:23:19.969Z,75.2
2023-02-05T08:24:23.334Z,75.4
2023-02-05T08:25:27.014Z,75.3
2023-02-05T08:26:30.472Z,75.1
2023-02-05T08:27:33.583Z,75.2
2023-02-05T08:28:37.312Z,75.2
2023-02-05T08:29:40.047Z,74.9
2023-02-05T08:30:43.541Z,74.9
2023-02-05T08:31:47.064Z,74.8
2023-02-05T08:32:51.228Z,74.6
2023-02-05T08:33:53.651Z,74.5
2023-02-05T08:34:57.060Z,74.8
2023-02-05T08:36:00.214Z,74.6
2023-02-05T08:37:03.367Z,74.7
2023-02-05T08:38:06.989Z,74.6
2023-02-05T08:39:10.756Z,74.6
2023-02-05T08:40:13.488Z,74.4
2023-02-05T08:41:16.879Z,74.4
2023-02-05T08:42:20.430Z,74.4
2023-02-05T08:43:23.760Z,74.3
2023-02-05T08:44:26.463Z,74.3
2023-02-05T08:45:30.032Z,74.3
2023-02-05T08:46:51.240Z,74.3
2023-02-05T08:47:54.220Z,74.2
2023-02-05T08:48:57.584Z,74.3
2023-02-05T08:50:00.919Z,74.2
2023-02-05T08:51:04.423Z,74.1
2023-02-05T08:52:07.663Z,73.9
2023-02-05T08:53:11.004Z,73.7
2023-02-05T08:54:14.523Z,73.5
2023-02-05T08:55:18.562Z,73.5
2023-02-05T08:56:22.049Z,73.5
2023-02-05T08:57:25.132Z,73.5
2023-02-05T08:58:28.824Z,74.1
2023-02-05T08:59:32.252Z,74.1
2023-02-05T09:00:35.884Z,73.7
2023-02-05T09:01:38.401Z,73.5
2023-02-05T09:02:41.662Z,73.8
2023-02-05T09:03:44.766Z,73.2
2023-02-05T09:04:47.556Z,74.4
2023-02-05T09:05:51.553Z,73.1
2023-02-05T09:06:54.634Z,74.1
2023-02-05T09:07:58.302Z,74.6
2023-02-05T09:09:01.078Z,73.6
2023-02-05T09:10:04.498Z,72.8
2023-02-05T09:11:07.853Z,72.1
2023-02-05T09:12:12.236Z,72.1
2023-02-05T09:13:15.320Z,71.9
2023-02-05T09:14:18.484Z,71.9
2023-02-05T09:15:22.806Z,71.8
2023-02-05T09:16:26.038Z,71.5
2023-02-05T09:17:29.347Z,71.5
2023-02-05T09:18:33.069Z,71.7
2023-02-05T09:19:35.932Z,72.1
2023-02-05T09:20:39.620Z,71.6
2023-02-05T09:21:42.731Z,71.5
2023-02-05T09:22:46.026Z,71.3
2023-02-05T09:23:49.485Z,71.2
2023-02-05T09:24:53.181Z,71
2023-02-05T09:25:56.960Z,71.1
2023-02-05T09:27:00.129Z,70.7
2023-02-05T09:28:03.976Z,70.7
2023-02-05T09:29:07.332Z,70.7
2023-02-05T09:30:10.436Z,70.6
2023-02-05T09:31:14.523Z,70.6
2023-02-05T09:32:18.295Z,70.6
2023-02-05T09:33:21.638Z,70.4
2023-02-05T09:34:24.714Z,70.2
2023-02-05T09:35:28.147Z,70.6
2023-02-05T09:36:30.994Z,69.8
2023-02-05T09:37:34.185Z,69.6
2023-02-05T09:38:37.390Z,69.4
2023-02-05T09:40:23.724Z,68.7
2023-02-05T09:41:31.099Z,68.2
2023-02-05T09:42:34.957Z,68.5
2023-02-05T09:43:39.270Z,68.3
2023-02-05T09:44:42.648Z,68.4
2023-02-05T09:45:46.387Z,68.6
2023-02-05T09:46:49.503Z,69
2023-02-05T09:47:51.942Z,69.3
2023-02-05T09:48:54.938Z,69.5
2023-02-05T09:49:58.308Z,69.4
2023-02-05T09:51:01.393Z,69.3
2023-02-05T09:52:05.000Z,69.4
2023-02-05T09:53:08.698Z,69.4
2023-02-05T09:54:11.865Z,69.6
2023-02-05T09:55:14.447Z,70.1
2023-02-05T09:56:18.094Z,70.3
2023-02-05T09:57:21.180Z,70
2023-02-05T09:58:24.530Z,69.8
2023-02-05T09:59:28.598Z,69.9
2023-02-05T10:00:32.386Z,70
2023-02-05T10:01:36.276Z,70.1
2023-02-05T10:02:39.606Z,70.1
2023-02-05T10:03:42.477Z,70.2
2023-02-05T10:04:45.391Z,70.1
2023-02-05T10:05:48.747Z,69.7
2023-02-05T10:06:51.252Z,69.5
2023-02-05T10:07:54.639Z,69.8
2023-02-05T10:08:57.704Z,69.8
2023-02-05T10:10:01.029Z,68.9
2023-02-05T10:11:04.884Z,68.8
2023-02-05T10:12:08.598Z,68.7
2023-02-05T10:13:12.695Z,68.4
2023-02-05T10:14:16.330Z,68.8
2023-02-05T10:15:20.198Z,69
2023-02-05T10:16:23.514Z,68.7
2023-02-05T10:17:27.170Z,68.2
2023-02-05T10:18:30.884Z,67.6
2023-02-05T10:19:34.233Z,67.4
2023-02-05T10:20:37.761Z,67.5
2023-02-05T10:21:40.870Z,67.2
2023-02-05T10:22:43.581Z,66.9
2023-02-05T10:23:47.338Z,67.1
2023-02-05T10:24:50.504Z,67
2023-02-05T10:25:53.288Z,67.3
2023-02-05T10:26:56.011Z,66.5
2023-02-05T10:27:59.364Z,65.9
2023-02-05T10:29:02.591Z,65.8
2023-02-05T10:30:06.660Z,65.6
2023-02-05T10:31:11.007Z,65.7
2023-02-05T10:32:14.777Z,65.5
2023-02-05T10:33:18.151Z,65
2023-02-05T10:34:21.958Z,64.9
2023-02-05T10:35:25.135Z,65.1
2023-02-05T10:36:28.489Z,64.8
2023-02-05T10:37:31.563Z,65.1
2023-02-05T10:38:34.278Z,65.3
2023-02-05T10:39:37.141Z,65.9
2023-02-05T10:40:39.670Z,66
2023-02-05T10:41:43.378Z,66
2023-02-05T10:42:46.177Z,66.3
2023-02-05T10:43:49.163Z,66
2023-02-05T10:44:52.974Z,65.6
2023-02-05T10:45:56.132Z,65.4
2023-02-05T10:47:00.338Z,65.2
2023-02-05T10:48:04.099Z,64.9
2023-02-05T10:49:07.176Z,64.3
2023-02-05T10:50:10.811Z,63.8
2023-02-05T10:51:14.489Z,63.6
2023-02-05T10:52:17.228Z,63.4
2023-02-05T10:53:19.772Z,63
2023-02-05T10:54:23.146Z,62.1
2023-02-05T10:55:26.128Z,61.8
2023-02-05T10:56:29.571Z,61.5
2023-02-05T10:57:33.016Z,61.2
2023-02-05T10:58:35.532Z,61.3
2023-02-05T10:59:39.223Z,60.5
2023-02-05T11:00:43.305Z,60
2023-02-05T11:01:46.935Z,60.4
2023-02-05T11:02:51.521Z,60.6
2023-02-05T11:03:55.098Z,60.2
2023-02-05T11:04:58.815Z,60.5
2023-02-05T11:06:01.448Z,60.5
2023-02-05T11:07:04.168Z,60.7
2023-02-05T11:08:06.868Z,60.5
2023-02-05T11:09:09.859Z,59.7
2023-02-05T11:10:13.296Z,59.4
2023-02-05T11:11:16.745Z,59.6
2023-02-05T11:12:20.035Z,59.7
2023-02-05T11:13:23.437Z,59.9
2023-02-05T11:14:26.838Z,60.4
2023-02-05T11:15:30.173Z,61.4
2023-02-05T11:16:33.484Z,61.4
2023-02-05T11:17:36.924Z,61.8
2023-02-05T11:18:41.104Z,61.7
2023-02-05T11:19:44.854Z,62
2023-02-05T11:20:48.236Z,62.5
2023-02-05T11:21:51.097Z,62.6
2023-02-05T11:22:54.467Z,62.5
2023-02-05T11:23:57.085Z,62.3
2023-02-05T11:25:00.733Z,62.3
2023-02-05T11:26:03.268Z,62.6
2023-02-05T11:27:06.442Z,61.9
2023-02-05T11:28:09.853Z,61.9
2023-02-05T11:29:13.069Z,61.9
2023-02-05T11:30:16.158Z,62.1
2023-02-05T11:31:35.465Z,62.3
2023-02-05T11:32:39.283Z,62.3
2023-02-05T11:33:43.143Z,61.8
2023-02-05T11:34:46.363Z,61.7
2023-02-05T11:35:49.720Z,61.6
2023-02-05T11:36:53.461Z,62
2023-02-05T11:37:56.609Z,62.1
2023-02-05T11:39:00.053Z,61.7
2023-02-05T11:40:03.430Z,61.8
2023-02-05T11:41:06.521Z,60.6
2023-02-05T11:42:10.591Z,60.4
2023-02-05T11:43:13.367Z,60.4
2023-02-05T11:44:16.451Z,61
2023-02-05T11:45:19.892Z,60.8
2023-02-05T11:46:23.772Z,61.2
2023-02-05T11:47:27.954Z,61.6
2023-02-05T11:48:31.633Z,62.1
2023-02-05T11:49:35.045Z,62.2
2023-02-05T11:50:38.820Z,62.3
2023-02-05T11:51:41.812Z,62.4
2023-02-05T11:52:45.425Z,61.8
2023-02-05T11:53:48.935Z,61.8
2023-02-05T11:54:51.733Z,61.8
2023-02-05T11:55:55.086Z,61.9
2023-02-05T11:56:58.537Z,62
2023-02-05T11:58:01.967Z,61.9
2023-02-05T11:59:04.689Z,62.4
2023-02-05T12:00:08.025Z,63.1
2023-02-05T12:01:11.317Z,63.3
2023-02-05T12:02:14.675Z,63.2
2023-02-05T12:03:17.902Z,62.8
2023-02-05T12:04:20.858Z,62.8
2023-02-05T12:05:24.660Z,63.1
2023-02-05T12:06:28.014Z,63.3
2023-02-05T12:07:31.080Z,63.6
2023-02-05T12:08:34.443Z,63.7
2023-02-05T12:09:37.151Z,63.7
2023-02-05T12:10:40.597Z,63.6
2023-02-05T12:11:43.843Z,63.7
2023-02-05T12:12:46.971Z,63.7
2023-02-05T12:13:50.407Z,63.8
2023-02-05T12:14:53.667Z,63.9
2023-02-05T12:15:57.195Z,63.8
2023-02-05T12:17:00.942Z,63.8
2023-02-05T12:18:04.022Z,63.3
2023-02-05T12:19:07.394Z,63.3
2023-02-05T12:20:10.206Z,63.4
2023-02-05T12:21:13.947Z,62.8
2023-02-05T12:22:17.438Z,62.9
2023-02-05T12:23:20.435Z,62.9
2023-02-05T12:24:23.441Z,63
2023-02-05T12:25:26.829Z,63
2023-02-05T12:26:30.538Z,62.9
2023-02-05T12:27:33.600Z,63.2
2023-02-05T12:28:36.940Z,62.9
2023-02-05T12:29:39.917Z,62.9
2023-02-05T12:30:43.389Z,63.1
2023-02-05T12:31:47.100Z,63.2
2023-02-05T12:32:50.520Z,63.4
2023-02-05T12:34:08.566Z,63.6
2023-02-05T12:35:11.987Z,63.7
2023-02-05T12:36:15.924Z,63.7
2023-02-05T12:37:19.974Z,63.7
2023-02-05T12:38:33.995Z,63.8
2023-02-05T12:39:37.919Z,63.2
2023-02-05T12:40:41.341Z,63
2023-02-05T12:41:45.091Z,63.3
2023-02-05T12:42:47.320Z,63.6
2023-02-05T12:43:50.651Z,64
2023-02-05T12:44:53.635Z,63.9
2023-02-05T12:45:57.411Z,63.5
2023-02-05T12:47:00.742Z,63.4
2023-02-05T12:48:04.451Z,63.4
2023-02-05T12:49:07.360Z,63.6
2023-02-05T12:50:10.442Z,63.4
2023-02-05T12:51:13.871Z,63
2023-02-05T12:52:17.296Z,62.9
2023-02-05T12:53:20.854Z,63.1
2023-02-05T12:54:23.545Z,63.2
2023-02-05T12:55:26.877Z,62.7
2023-02-05T12:56:29.942Z,62.8
2023-02-05T12:57:33.134Z,62.6
2023-02-05T12:58:35.824Z,62.8
2023-02-05T12:59:39.144Z,62.8
2023-02-05T13:00:42.769Z,62.9
2023-02-05T13:01:46.151Z,62.9
2023-02-05T13:02:49.590Z,62.8
2023-02-05T13:03:53.223Z,62.8
2023-02-05T13:04:56.840Z,62.8
2023-02-05T13:05:59.830Z,62.7
2023-02-05T13:07:02.862Z,62.8
2023-02-05T13:08:06.309Z,62.9
2023-02-05T13:09:10.370Z,63
2023-02-05T13:10:13.418Z,63
2023-02-05T13:11:16.216Z,62.8
2023-02-05T13:12:19.631Z,62.5
2023-02-05T13:13:22.622Z,62
2023-02-05T13:14:25.322Z,61.3
2023-02-05T13:15:28.462Z,61.2
2023-02-05T13:16:32.440Z,61.1
2023-02-05T13:17:35.377Z,61.1
2023-02-05T13:18:39.061Z,61.3
2023-02-05T13:19:42.519Z,61.2
2023-02-05T13:20:46.235Z,61
2023-02-05T13:21:49.847Z,61.6
2023-02-05T13:22:53.049Z,61.2
2023-02-05T13:23:56.089Z,60.9
2023-02-05T13:24:59.908Z,60.4
2023-02-05T13:26:02.683Z,60.7
2023-02-05T13:27:06.044Z,60.6
2023-02-05T13:28:09.044Z,60.4
2023-02-05T13:29:15.583Z,60.3
2023-02-05T13:30:19.468Z,60.4
2023-02-05T13:31:24.286Z,60.5
2023-02-05T13:32:28.434Z,60.9
2023-02-05T13:33:31.754Z,61.2
2023-02-05T13:34:35.753Z,61.3
2023-02-05T13:35:38.634Z,61.4
2023-02-05T13:36:42.313Z,61.2
2023-02-05T13:37:45.624Z,61
2023-02-05T13:38:49.283Z,60.7
2023-02-05T13:39:52.043Z,60
2023-02-05T13:40:56.189Z,59.4
2023-02-05T13:42:00.186Z,59
2023-02-05T13:43:02.950Z,58.8
2023-02-05T13:44:06.918Z,58
2023-02-05T13:45:09.614Z,58.4
2023-02-05T13:46:13.574Z,58.2
2023-02-05T13:47:16.743Z,57.2
2023-02-05T13:48:19.524Z,57.2
2023-02-05T13:49:23.141Z,57.3
2023-02-05T13:50:25.837Z,57.7
2023-02-05T13:51:29.202Z,57.7
2023-02-05T13:52:32.938Z,57.2
2023-02-05T13:53:36.327Z,57.5
2023-02-05T13:54:40.190Z,57.8
2023-02-05T13:55:43.894Z,57.8
2023-02-05T13:56:47.460Z,58
2023-02-05T13:57:51.072Z,57.7
2023-02-05T13:58:54.220Z,57.7
2023-02-05T13:59:57.944Z,57.7
2023-02-05T14:01:01.347Z,58.2
2023-02-05T14:02:04.704Z,58.8
2023-02-05T14:03:08.175Z,59.2
2023-02-05T14:04:11.926Z,58.7
2023-02-05T14:05:14.048Z,58.7
2023-02-05T14:06:17.706Z,58.7
2023-02-05T14:07:20.154Z,58.7
2023-02-05T14:08:23.509Z,58.8
2023-02-05T14:09:26.843Z,58.8
2023-02-05T14:10:30.223Z,59